createdAt,value
2022-12-08T00:01:21.839Z,101130.38
2022-12-08T00:03:49.157Z,101121.81
2022-12-08T00:06:59.634Z,101117.53
2022-12-08T00:09:32.076Z,101109.97
2022-12-08T00:12:06.286Z,101119.31
2022-12-08T00:14:38.593Z,101112.91
2022-12-08T00:17:06.973Z,101095.38
2022-12-08T00:19:33.986Z,101094.34
2022-12-08T00:22:00.644Z,101088.75
2022-12-08T00:24:33.083Z,101095.19
2022-12-08T00:26:59.565Z,101085.38
2022-12-08T00:29:26.048Z,101076.25
2022-12-08T00:31:52.847Z,101083.75
2022-12-08T00:34:19.880Z,101091.84
2022-12-08T00:36:46.887Z,101089.50
2022-12-08T00:39:14.695Z,101086.00
2022-12-08T00:41:59.781Z,101075.38
2022-12-08T00:44:26.362Z,101072.66
2022-12-08T00:46:52.998Z,101074.34
2022-12-08T00:49:19.614Z,101076.00
2022-12-08T00:51:46.181Z,101058.69
2022-12-08T00:54:13.592Z,101059.53
2022-12-08T00:56:40.202Z,101059.16
2022-12-08T00:59:07.549Z,101066.22
2022-12-08T01:01:35.557Z,101064.81
2022-12-08T01:04:07.196Z,101060.44
2022-12-08T01:06:36.900Z,101051.50
2022-12-08T01:09:05.813Z,101062.47
2022-12-08T01:11:33.028Z,101061.28
2022-12-08T01:13:59.676Z,101055.03
2022-12-08T01:16:28.543Z,101055.88
2022-12-08T01:18:55.353Z,101052.31
2022-12-08T01:21:21.960Z,101050.47
2022-12-08T01:23:48.445Z,101056.06
2022-12-08T01:26:17.588Z,101062.47
2022-12-08T01:28:45.524Z,101061.47
2022-12-08T01:31:18.817Z,101060.81
2022-12-08T01:33:45.951Z,101051.66
2022-12-08T01:36:33.705Z,101056.88
2022-12-08T01:39:01.876Z,101052.91
2022-12-08T01:41:31.803Z,101055.59
2022-12-08T01:44:08.667Z,101044.63
2022-12-08T01:46:38.079Z,101042.09
2022-12-08T01:49:20.824Z,101047.09
2022-12-08T01:52:13.326Z,101043.19
2022-12-08T01:55:02.189Z,101037.53
2022-12-08T01:57:41.467Z,101039.84
2022-12-08T02:00:12.290Z,101025.69
2022-12-08T02:02:48.000Z,101020.47
2022-12-08T02:05:16.253Z,101019.25
2022-12-08T02:07:43.684Z,101013.84
2022-12-08T02:10:14.319Z,101015.50
2022-12-08T02:12:40.923Z,101008.81
2022-12-08T02:15:07.930Z,101007.63
2022-12-08T02:18:02.271Z,101012.63
2022-12-08T02:20:49.980Z,101012.81
2022-12-08T02:23:24.192Z,101006.97
2022-12-08T02:26:16.432Z,101009.47
2022-12-08T02:28:55.118Z,100998.44
2022-12-08T02:31:36.970Z,100999.50
2022-12-08T02:34:19.140Z,100991.41
2022-12-08T02:36:45.514Z,100981.25
2022-12-08T02:39:17.749Z,100980.38
2022-12-08T02:41:54.048Z,100978.91
2022-12-08T02:44:27.591Z,100969.97
2022-12-08T02:47:10.218Z,100971.81
2022-12-08T02:49:36.770Z,100959.56
2022-12-08T02:52:12.234Z,100961.84
2022-12-08T02:54:42.021Z,100959.72
2022-12-08T02:57:18.784Z,100957.47
2022-12-08T03:00:11.743Z,100953.31
2022-12-08T03:03:12.412Z,100968.28
2022-12-08T03:05:38.891Z,100972.84
2022-12-08T03:08:26.877Z,100972.84
2022-12-08T03:11:02.127Z,100967.66
2022-12-08T03:13:51.381Z,100965.59
2022-12-08T03:16:24.412Z,100956.84
2022-12-08T03:18:56.278Z,100964.75
2022-12-08T03:21:23.094Z,100956.44
2022-12-08T03:23:54.140Z,100949.75
2022-12-08T03:26:45.897Z,100942.53
2022-12-08T03:29:13.273Z,100939.00
2022-12-08T03:31:45.256Z,100943.56
2022-12-08T03:34:14.047Z,100933.81
2022-12-08T03:36:40.619Z,100929.44
2022-12-08T03:39:07.174Z,100917.38
2022-12-08T03:41:33.645Z,100912.81
2022-12-08T03:44:00.188Z,100914.69
2022-12-08T03:48:55.183Z,100911.13
2022-12-08T03:51:22.308Z,100909.50
2022-12-08T03:53:49.551Z,100911.34
2022-12-08T03:56:26.174Z,100913.84
2022-12-08T03:58:53.830Z,100892.41
2022-12-08T04:01:20.709Z,100900.53
2022-12-08T04:03:47.384Z,100893.28
2022-12-08T04:06:14.400Z,100898.69
2022-12-08T04:08:41.113Z,100897.00
2022-12-08T04:11:07.989Z,100895.56
2022-12-08T04:13:39.234Z,100894.91
2022-12-08T04:16:06.594Z,100892.88
2022-12-08T04:18:34.434Z,100887.47
2022-12-08T04:21:00.978Z,100876.66
2022-12-08T04:23:27.478Z,100874.97
2022-12-08T04:25:54.201Z,100875.63
2022-12-08T04:28:21.722Z,100868.38
2022-12-08T04:30:49.276Z,100873.31
2022-12-08T04:33:16.119Z,100877.69
2022-12-08T04:35:42.694Z,100881.22
2022-12-08T04:38:09.218Z,100878.34
2022-12-08T04:40:35.762Z,100883.75
2022-12-08T04:43:02.359Z,100885.78
2022-12-08T04:45:28.902Z,100874.13
2022-12-08T04:47:55.531Z,100860.84
2022-12-08T04:50:22.146Z,100878.34
2022-12-08T04:52:48.675Z,100863.97
2022-12-08T04:55:15.261Z,100871.25
2022-12-08T04:57:41.787Z,100873.94
2022-12-08T05:00:08.854Z,100869.56
2022-12-08T05:02:35.510Z,100884.75
2022-12-08T05:05:02.026Z,100869.56
2022-12-08T05:07:28.556Z,100878.09
2022-12-08T05:09:55.086Z,100876.22
2022-12-08T05:12:21.610Z,100880.38
2022-12-08T05:14:48.481Z,100881.41
2022-12-08T05:17:16.485Z,100883.50
2022-12-08T05:19:43.227Z,100884.50
2022-12-08T05:22:10.022Z,100880.53
2022-12-08T05:24:36.820Z,100884.28
2022-12-08T05:27:03.556Z,100881.94
2022-12-08T05:29:30.057Z,100871.75
2022-12-08T05:31:56.700Z,100871.09
2022-12-08T05:34:23.357Z,100878.59
2022-12-08T05:36:49.977Z,100863.59
2022-12-08T05:39:16.475Z,100863.81
2022-12-08T05:41:42.974Z,100845.47
2022-12-08T05:44:09.570Z,100858.19
2022-12-08T05:46:36.718Z,100851.09
2022-12-08T05:49:04.134Z,100848.63
2022-12-08T05:51:30.695Z,100855.69
2022-12-08T05:53:57.855Z,100852.16
2022-12-08T05:56:24.643Z,100852.78
2022-12-08T05:58:51.383Z,100856.50
2022-12-08T06:01:22.596Z,100863.59
2022-12-08T06:03:49.325Z,100848.41
2022-12-08T06:06:16.061Z,100841.34
2022-12-08T06:08:42.615Z,100842.19
2022-12-08T06:11:09.622Z,100852.78
2022-12-08T06:13:36.500Z,100830.09
2022-12-08T06:16:07.166Z,100835.28
2022-12-08T06:18:33.858Z,100846.94
2022-12-08T06:21:07.955Z,100840.69
2022-12-08T06:23:34.696Z,100843.66
2022-12-08T06:26:09.841Z,100839.94
2022-12-08T06:28:37.167Z,100832.84
2022-12-08T06:31:13.360Z,100836.16
2022-12-08T06:33:40.251Z,100833.47
2022-12-08T06:36:07.539Z,100823.72
2022-12-08T06:38:36.356Z,100827.88
2022-12-08T06:41:06.632Z,100836.81
2022-12-08T06:43:33.333Z,100832.44
2022-12-08T06:46:01.114Z,100836.81
2022-12-08T06:48:27.667Z,100841.19
2022-12-08T06:50:54.176Z,100838.69
2022-12-08T06:53:20.754Z,100840.56
2022-12-08T06:55:59.116Z,100843.25
2022-12-08T06:58:26.271Z,100828.72
2022-12-08T07:00:53.560Z,100834.31
2022-12-08T07:03:20.561Z,100825.19
2022-12-08T07:05:47.149Z,100819.97
2022-12-08T07:08:13.740Z,100820.38
2022-12-08T07:10:40.367Z,100831.59
2022-12-08T07:13:06.925Z,100830.75
2022-12-08T07:15:33.752Z,100825.38
2022-12-08T07:18:00.694Z,100830.41
2022-12-08T07:20:27.746Z,100832.44
2022-12-08T07:22:54.453Z,100838.69
2022-12-08T07:25:21.594Z,100834.53
2022-12-08T07:27:49.963Z,100840.56
2022-12-08T07:30:16.590Z,100835.16
2022-12-08T07:32:43.123Z,100830.16
2022-12-08T07:35:10.324Z,100837.00
2022-12-08T07:37:37.926Z,100834.13
2022-12-08T07:40:06.766Z,100835.81
2022-12-08T07:42:33.682Z,100833.09
2022-12-08T07:45:00.752Z,100833.72
2022-12-08T07:47:27.373Z,100831.25
2022-12-08T07:49:53.850Z,100838.28
2022-12-08T07:52:20.384Z,100844.53
2022-12-08T07:54:47.490Z,100849.94
2022-12-08T07:57:14.049Z,100846.34
2022-12-08T07:59:40.518Z,100848.81
2022-12-08T08:02:24.128Z,100849.84
2022-12-08T08:04:51.271Z,100840.47
2022-12-08T08:07:17.879Z,100837.38
2022-12-08T08:09:45.602Z,100840.69
2022-12-08T08:12:30.824Z,100841.94
2022-12-08T08:14:59.479Z,100849.84
2022-12-08T08:17:26.129Z,100848.19
2022-12-08T08:19:52.739Z,100841.50
2022-12-08T08:22:19.274Z,100852.75
2022-12-08T08:24:45.741Z,100849.84
2022-12-08T08:27:12.572Z,100851.28
2022-12-08T08:29:39.159Z,100844.19
2022-12-08T08:32:05.691Z,100849.59
2022-12-08T08:34:32.176Z,100846.91
2022-12-08T08:36:58.709Z,100840.19
2022-12-08T08:39:25.279Z,100851.66
2022-12-08T08:41:51.778Z,100844.78
2022-12-08T08:44:18.540Z,100841.91
2022-12-08T08:46:45.184Z,100845.22
2022-12-08T08:49:11.759Z,100830.59
2022-12-08T08:51:38.431Z,100842.91
2022-12-08T08:54:05.060Z,100853.06
2022-12-08T08:56:31.810Z,100849.56
2022-12-08T08:58:58.341Z,100850.19
2022-12-08T09:01:27.556Z,100849.34
2022-12-08T09:03:55.532Z,100851.88
2022-12-08T09:06:23.136Z,100841.81
2022-12-08T09:08:50.567Z,100853.06
2022-12-08T09:11:18.727Z,100840.19
2022-12-08T09:13:49.119Z,100839.13
2022-12-08T09:16:16.321Z,100840.63
2022-12-08T09:18:43.268Z,100843.31
2022-12-08T09:21:16.351Z,100839.78
2022-12-08T09:23:43.499Z,100838.94
2022-12-08T09:26:10.139Z,100833.13
2022-12-08T09:28:36.755Z,100837.69
2022-12-08T09:31:03.970Z,100831.94
2022-12-08T09:33:30.504Z,100825.69
2022-12-08T09:35:57.093Z,100838.78
2022-12-08T09:38:23.660Z,100839.81
2022-12-08T09:40:53.047Z,100840.66
2022-12-08T09:43:34.217Z,100837.78
2022-12-08T09:46:04.731Z,100830.28
2022-12-08T09:48:35.885Z,100832.81
2022-12-08T09:51:04.707Z,100828.25
2022-12-08T09:54:03.934Z,100833.44
2022-12-08T09:56:35.678Z,100832.41
2022-12-08T09:59:23.084Z,100839.28
2022-12-08T10:01:50.546Z,100834.47
2022-12-08T10:04:26.683Z,100836.97
2022-12-08T10:07:17.336Z,100834.09
2022-12-08T10:10:00.634Z,100824.28
2022-12-08T10:12:40.348Z,100822.84
2022-12-08T10:15:25.494Z,100831.56
2022-12-08T10:17:54.349Z,100825.97
2022-12-08T10:20:26.034Z,100827.19
2022-12-08T10:23:04.514Z,100822.84
2022-12-08T10:25:38.095Z,100829.88
2022-12-08T10:28:04.794Z,100820.75
2022-12-08T10:30:31.873Z,100816.59
2022-12-08T10:32:58.547Z,100814.75
2022-12-08T10:35:25.483Z,100819.09
2022-12-08T10:38:00.049Z,100823.66
2022-12-08T10:40:28.979Z,100810.38
2022-12-08T10:42:59.743Z,100810.78
2022-12-08T10:45:33.345Z,100806.22
2022-12-08T10:48:14.726Z,100808.72
2022-12-08T10:50:47.232Z,100804.41
2022-12-08T10:53:28.592Z,100808.53
2022-12-08T10:55:57.957Z,100810.00
2022-12-08T10:58:27.235Z,100807.09
2022-12-08T11:00:56.534Z,100801.53
2022-12-08T11:03:36.322Z,100807.72
2022-12-08T11:06:14.774Z,100801.94
2022-12-08T11:08:51.547Z,100807.34
2022-12-08T11:11:21.080Z,100802.31
2022-12-08T11:13:51.713Z,100809.38
2022-12-08T11:16:19.445Z,100803.13
2022-12-08T11:18:56.361Z,100804.75
2022-12-08T11:21:34.756Z,100803.28
2022-12-08T11:24:18.514Z,100794.56
2022-12-08T11:26:53.010Z,100799.97
2022-12-08T11:29:20.394Z,100782.47
2022-12-08T11:31:54.801Z,100781.41
2022-12-08T11:34:51.840Z,100784.38
2022-12-08T11:37:35.333Z,100783.75
2022-12-08T11:40:07.330Z,100782.47
2022-12-08T11:43:09.443Z,100782.06
2022-12-08T11:45:36.407Z,100779.56
2022-12-08T11:48:05.951Z,100782.25
2022-12-08T11:50:56.117Z,100773.13
2022-12-08T11:53:30.266Z,100773.97
2022-12-08T11:56:00.414Z,100756.31
2022-12-08T11:58:45.306Z,100768.81
2022-12-08T12:01:21.434Z,100762.56
2022-12-08T12:04:21.684Z,100763.41
2022-12-08T12:07:09.536Z,100760.50
2022-12-08T12:09:56.628Z,100755.09
2022-12-08T12:12:55.814Z,100752.81
2022-12-08T12:15:40.804Z,100759.06
2022-12-08T12:18:37.899Z,100760.94
2022-12-08T12:21:31.358Z,100757.59
2022-12-08T12:24:04.649Z,100751.13
2022-12-08T12:26:39.165Z,100754.66
2022-12-08T12:29:18.409Z,100749.91
2022-12-08T12:31:51.950Z,100745.31
2022-12-08T12:34:23.310Z,100760.91
2022-12-08T12:36:55.335Z,100743.84
2022-12-08T12:39:29.241Z,100736.41
2022-12-08T12:41:59.012Z,100738.06
2022-12-08T12:44:38.457Z,100730.38
2022-12-08T12:47:11.122Z,100732.66
2022-12-08T12:49:40.345Z,100724.75
2022-12-08T12:52:09.808Z,100727.91
2022-12-08T12:54:36.382Z,100721.25
2022-12-08T12:57:05.552Z,100733.28
2022-12-08T12:59:42.569Z,100729.34
2022-12-08T13:02:20.136Z,100729.78
2022-12-08T13:04:56.836Z,100725.41
2022-12-08T13:07:27.458Z,100726.47
2022-12-08T13:10:02.676Z,100723.34
2022-12-08T13:12:29.510Z,100724.59
2022-12-08T13:15:04.845Z,100721.44
2022-12-08T13:17:36.236Z,100717.31
2022-12-08T13:20:06.322Z,100710.88
2022-12-08T13:22:54.741Z,100714.84
2022-12-08T13:25:39.719Z,100703.84
2022-12-08T13:28:19.987Z,100706.75
2022-12-08T13:30:49.175Z,100699.28
2022-12-08T13:33:39.535Z,100690.94
2022-12-08T13:36:17.048Z,100705.06
2022-12-08T13:38:46.691Z,100707.56
2022-12-08T13:41:18.926Z,100710.72
2022-12-08T13:44:39.171Z,100701.56
2022-12-08T13:58:31.583Z,100697.38
2022-12-08T14:01:11.154Z,100701.56
2022-12-08T14:04:04.704Z,100706.13
2022-12-08T14:06:38.500Z,100700.91
2022-12-08T14:09:14.228Z,100698.22
2022-12-08T14:11:47.935Z,100706.31
2022-12-08T14:15:03.062Z,100703.44
2022-12-08T14:17:30.628Z,100688.66
2022-12-08T14:20:03.359Z,100699.06
2022-12-08T14:22:38.252Z,100696.34
2022-12-08T14:25:07.034Z,100692.81
2022-12-08T14:27:36.830Z,100684.09
2022-12-08T14:30:15.970Z,100694.50
2022-12-08T14:32:51.067Z,100688.66
2022-12-08T14:35:23.883Z,100684.72
2022-12-08T14:37:54.520Z,100687.63
2022-12-08T14:40:36.365Z,100692.81
2022-12-08T14:43:17.609Z,100692.44
2022-12-08T14:45:43.961Z,100685.38
2022-12-08T14:48:39.301Z,100697.00
2022-12-08T14:51:18.612Z,100691.38
2022-12-08T14:54:00.671Z,100696.56
2022-12-08T14:56:36.050Z,100703.41
2022-12-08T14:59:07.499Z,100699.22
2022-12-08T15:01:34.734Z,100701.06
2022-12-08T15:04:07.671Z,100688.16
2022-12-08T15:06:34.697Z,100692.28
2022-12-08T15:09:18.143Z,100696.66
2022-12-08T15:11:44.680Z,100692.69
2022-12-08T15:14:35.553Z,100700.81
2022-12-08T15:17:02.740Z,100693.50
2022-12-08T15:19:32.074Z,100696.22
2022-12-08T15:22:14.369Z,100706.38
2022-12-08T15:24:40.899Z,100692.84
2022-12-08T15:27:07.557Z,100702.63
2022-12-08T15:29:34.018Z,100708.44
2022-12-08T15:32:01.897Z,100708.22
2022-12-08T15:34:31.438Z,100702.19
2022-12-08T15:36:57.933Z,100711.16
2022-12-08T15:39:36.520Z,100718.00
2022-12-08T15:42:04.925Z,100717.16
2022-12-08T15:44:32.765Z,100710.50
2022-12-08T15:46:59.857Z,100711.16
2022-12-08T15:49:26.600Z,100706.94
2022-12-08T15:52:03.492Z,100712.56
2022-12-08T15:54:37.067Z,100706.91
2022-12-08T15:57:19.056Z,100704.44
2022-12-08T15:59:49.168Z,100712.75
2022-12-08T16:02:20.966Z,100707.31
2022-12-08T16:07:37.853Z,100707.56
2022-12-08T16:10:06.722Z,100713.59
2022-12-08T16:16:00.905Z,100711.31
2022-12-08T16:18:32.637Z,100715.06
2022-12-08T16:23:46.188Z,100700.50
2022-12-08T16:29:04.676Z,100696.34
2022-12-08T16:31:31.526Z,100698.63
2022-12-08T16:33:58.144Z,100684.69
2022-12-08T16:36:24.676Z,100692.97
2022-12-08T16:38:51.195Z,100689.25
2022-12-08T16:41:36.699Z,100690.47
2022-12-08T16:44:05.399Z,100695.88
2022-12-08T16:46:32.077Z,100688.44
2022-12-08T16:48:59.024Z,100697.50
2022-12-08T16:51:27.204Z,100685.25
2022-12-08T16:53:55.279Z,100697.47
2022-12-08T16:56:28.764Z,100703.09
2022-12-08T16:58:58.591Z,100698.09
2022-12-08T17:01:25.249Z,100689.16
2022-12-08T17:04:14.756Z,100687.91
2022-12-08T17:06:38.301Z,100695.56
2022-12-08T17:09:04.840Z,100694.09
2022-12-08T17:11:37.539Z,100686.41
2022-12-08T17:14:09.050Z,100693.00
2022-12-08T17:16:35.675Z,100694.09
2022-12-08T17:19:02.310Z,100686.56
2022-12-08T17:21:28.863Z,100689.84
2022-12-08T17:23:55.401Z,100689.03
2022-12-08T17:26:21.937Z,100689.47
2022-12-08T17:29:03.752Z,100684.47
2022-12-08T17:31:32.060Z,100686.56
2022-12-08T17:34:03.904Z,100692.41
2022-12-08T17:36:30.701Z,100681.03
2022-12-08T17:39:00.225Z,100683.28
2022-12-08T17:41:27.143Z,100673.34
2022-12-08T17:43:53.710Z,100679.16
2022-12-08T17:46:20.787Z,100680.38
2022-12-08T17:48:47.479Z,100673.09
2022-12-08T17:51:14.513Z,100682.84
2022-12-08T17:53:41.098Z,100674.53
2022-12-08T17:56:15.696Z,100666.59
2022-12-08T17:58:42.260Z,100683.69
2022-12-08T18:01:09.849Z,100675.78
2022-12-08T18:03:36.789Z,100672.84
2022-12-08T18:06:08.662Z,100677.59
2022-12-08T18:08:35.549Z,100683.78
2022-12-08T18:11:02.591Z,100680.16
2022-12-08T18:13:29.687Z,100683.78
2022-12-08T18:15:56.273Z,100681.50
2022-12-08T18:18:22.909Z,100678.59
2022-12-08T18:20:50.030Z,100675.75
2022-12-08T18:23:17.310Z,100673.22
2022-12-08T18:25:44.284Z,100681.75
2022-12-08T18:28:10.822Z,100672.63
2022-12-08T18:30:37.406Z,100665.78
2022-12-08T18:33:05.114Z,100672.22
2022-12-08T18:35:31.714Z,100669.50
2022-12-08T18:38:00.039Z,100670.28
2022-12-08T18:40:28.128Z,100662.19
2022-12-08T18:42:54.648Z,100657.84
2022-12-08T18:45:22.788Z,100671.97
2022-12-08T18:47:50.919Z,100664.88
2022-12-08T18:50:18.036Z,100669.00
2022-12-08T18:52:45.719Z,100666.13
2022-12-08T18:55:13.315Z,100668.41
2022-12-08T18:57:42.690Z,100669.91
2022-12-08T19:00:12.258Z,100666.56
2022-12-08T19:02:39.367Z,100657.41
2022-12-08T19:05:07.700Z,100661.97
2022-12-08T19:07:34.566Z,100666.38
2022-12-08T19:10:01.100Z,100665.72
2022-12-08T19:12:27.680Z,100661.75
2022-12-08T19:14:54.382Z,100663.25
2022-12-08T19:17:21.100Z,100670.28
2022-12-08T19:19:47.661Z,100659.25
2022-12-08T19:22:14.495Z,100646.94
2022-12-08T19:24:41.147Z,100664.22
2022-12-08T19:27:07.712Z,100660.47
2022-12-08T19:29:34.589Z,100662.34
2022-12-08T19:32:01.435Z,100659.00
2022-12-08T19:34:27.950Z,100667.91
2022-12-08T19:36:54.557Z,100666.84
2022-12-08T19:39:41.351Z,100671.81
2022-12-08T19:42:34.337Z,100670.38
2022-12-08T19:45:06.367Z,100656.47
2022-12-08T19:47:33.259Z,100654.59
2022-12-08T19:50:18.465Z,100652.34
2022-12-08T19:52:45.330Z,100659.16
2022-12-08T19:55:12.501Z,100662.25
2022-12-08T19:57:39.168Z,100658.84
2022-12-08T20:00:08.832Z,100653.00
2022-12-08T20:02:38.694Z,100658.84
2022-12-08T20:05:06.603Z,100657.78
2022-12-08T20:07:33.729Z,100659.72
2022-12-08T20:10:00.368Z,100659.69
2022-12-08T20:12:26.917Z,100643.94
2022-12-08T20:14:53.468Z,100651.59
2022-12-08T20:17:19.969Z,100655.88
2022-12-08T20:19:46.492Z,100653.19
2022-12-08T20:22:13.019Z,100658.81
2022-12-08T20:24:39.563Z,100656.94
2022-12-08T20:27:06.194Z,100659.25
2022-12-08T20:29:32.917Z,100657.56
2022-12-08T20:31:59.466Z,100662.06
2022-12-08T20:34:26.511Z,100655.22
2022-12-08T20:36:53.032Z,100655.66
2022-12-08T20:39:19.570Z,100660.22
2022-12-08T20:41:46.661Z,100657.69
2022-12-08T20:44:13.200Z,100658.28
2022-12-08T20:46:42.772Z,100658.75
2022-12-08T20:49:12.911Z,100652.09
2022-12-08T20:51:39.723Z,100656.06
2022-12-08T20:54:06.394Z,100657.91
2022-12-08T20:56:33.158Z,100655.00
2022-12-08T20:58:59.880Z,100668.69
2022-12-08T21:01:26.512Z,100655.22
2022-12-08T21:03:53.719Z,100660.97
2022-12-08T21:06:23.324Z,100667.41
2022-12-08T21:08:51.130Z,100666.38
2022-12-08T21:11:18.136Z,100666.19
2022-12-08T21:13:45.478Z,100672.81
2022-12-08T21:16:15.657Z,100669.84
2022-12-08T21:18:42.532Z,100673.16
2022-12-08T21:21:11.921Z,100671.53
2022-12-08T21:23:39.033Z,100668.16
2022-12-08T21:26:14.074Z,100672.47
2022-12-08T21:28:41.050Z,100653.22
2022-12-08T21:31:09.824Z,100662.78
2022-12-08T21:33:37.205Z,100663.13
2022-12-08T21:36:16.196Z,100665.69
2022-12-08T21:38:43.621Z,100663.16
2022-12-08T21:41:16.170Z,100673.06
2022-12-08T21:43:43.227Z,100672.03
2022-12-08T21:46:16.929Z,100672.22
2022-12-08T21:48:43.947Z,100669.53
2022-12-08T21:51:11.041Z,100675.75
2022-12-08T21:53:37.737Z,100669.06
2022-12-08T21:56:08.857Z,100687.56
2022-12-08T21:58:35.391Z,100677.16
2022-12-08T22:01:10.831Z,100690.47
2022-12-08T22:03:39.182Z,100682.72
2022-12-08T22:06:12.269Z,100688.91
2022-12-08T22:08:39.908Z,100691.66
2022-12-08T22:11:08.090Z,100689.22
2022-12-08T22:13:35.694Z,100686.72
2022-12-08T22:16:05.421Z,100689.03
2022-12-08T22:18:32.821Z,100678.84
2022-12-08T22:20:59.507Z,100685.88
2022-12-08T22:23:26.110Z,100687.75
2022-12-08T22:26:00.086Z,100685.00
2022-12-08T22:28:27.683Z,100684.69
2022-12-08T22:30:54.441Z,100681.16
2022-12-08T22:33:21.161Z,100678.63
2022-12-08T22:36:09.678Z,100683.19
2022-12-08T22:38:37.344Z,100685.06
2022-12-08T22:41:05.172Z,100681.78
2022-12-08T22:43:35.753Z,100681.78
2022-12-08T22:46:03.599Z,100678.91
2022-12-08T22:48:32.853Z,100674.13
2022-12-08T22:51:00.680Z,100677.03
2022-12-08T22:53:27.390Z,100672.28
2022-12-08T22:55:54.199Z,100663.16
2022-12-08T22:58:20.992Z,100662.53
2022-12-08T23:00:47.814Z,100676.47
2022-12-08T23:03:14.484Z,100669.41
2022-12-08T23:05:41.270Z,100658.16
2022-12-08T23:08:09.333Z,100651.09
2022-12-08T23:10:36.290Z,100660.16
2022-12-08T23:13:04.147Z,100667.22
2022-12-08T23:15:31.854Z,100654.59
2022-12-08T23:17:58.712Z,100671.53
2022-12-08T23:20:25.402Z,100659.75
2022-12-08T23:22:52.030Z,100675.38
2022-12-08T23:25:19.059Z,100663.97
2022-12-08T23:27:46.023Z,100669.34
2022-12-08T23:30:14.019Z,100674.22
2022-12-08T23:32:40.962Z,100668.75
2022-12-08T23:35:08.053Z,100672.41
2022-12-08T23:37:34.825Z,100669.72
2022-12-08T23:40:01.536Z,100667.34
2022-12-08T23:42:29.227Z,100669.34
2022-12-08T23:44:56.076Z,100664.97
2022-12-08T23:47:22.675Z,100657.50
2022-12-08T23:49:49.267Z,100651.69
2022-12-08T23:52:16.029Z,100662.38
2022-12-08T23:54:42.920Z,100656.19
2022-12-08T23:57:09.441Z,100648.03
2022-12-08T23:59:35.988Z,100654.81
